West Palm Beach, FL (33406)

11:39 PM EDT on August 27, 2015 (GMT -0400)
SFWMD | | Change Station
CLOSE
Current Station
Personal Weather Station
Location: West Palm Beach, FL
Elevation: 16 ft
Nearby Weather Stations

Elev 16 ft 26.65 °N, 80.07 °W | Updated 54 minutes ago

Scattered Clouds
Scattered Clouds
74 °F
Feels Like 72 °F
N
1
Wind Variable Wind from ESE
Gusts 1.0 mph

Today
High -- | Low -- °F
--% Chance of Precip.
Yesterday
High -- | Low -- °F
Precip. -- in
6:57 AM 7:45 PM
Waxing Gibbous, 96% visible
Pressure 30.01 in
Visibility 10.0 miles
Clouds Few 3000 ft
Few 18000 ft
Scattered Clouds 25000 ft
Heat Index 72 °F
Dew Point 72 °F
Humidity 93%
Rainfall in
Snow Depth Not available.
UV 0 out of 12
Pollen .60 out of 12
Air Quality Not available.
Flu Activity Not available.
METAR KPBI 280253Z 00000KT 10SM FEW030 FEW180 SCT250 24/23 A3001 RMK AO2 SLP161 T02440228 51014
Pressure 30.01 in
Visibility 10.0 miles
Clouds Few 3000 ft
Few 18000 ft
Scattered Clouds 25000 ft
Heat Index 72 °F
Dew Point 72 °F
Humidity 93%
Rainfall in
Snow Depth Not available.
UV 0 out of 12
Pollen .60 out of 12
Air Quality Not available.
Flu Activity Not available.
METAR KPBI 280253Z 00000KT 10SM FEW030 FEW180 SCT250 24/23 A3001 RMK AO2 SLP161 T02440228 51014
Tropical Storm Erika remains unorganized as it travels through the northeast Caribbean Sea. Puerto Rico could receive over a foot of rain from Erika, which could help the ongoing drought but could also produce dangerous mudslides. Erika is not forecast to reach hurricane strength until Monday when it curves northward along the east coast of Florida. Follow the live blog

10-Day Weather Forecast

×

Almanac

Astronomy

Aug. 27, 2015 Rise Set
Actual Time
Civil Twilight
Nautical Twilight
Astronomical Twilight
Moon
Length of Visible Light
Length of Day
Tomorrow will be .
, % of the Moon is Illuminated

Today's Extremes

State Highs State Lows

Community

WunderPhotos

Upload Photos

1,850,317 photos uploaded!

WunderBlogs® & News

Nearby

Air Quality

  Air Quality AQ Index Pollutant
Not available.

Snow Depth

Station Depth Elevation

Earthquake Activity

City Distance Mag. Time & Date
Minimum magnitude displayed is 2.5.

Coastal Water Temperatures

Place Temperature

Stations

Nearby Weather Stations

Station Location Temp. Windchill Dew Point Humidity Wind Precip. Elev Updated Type